sensor_id;sensor_type;location;lat;lon;timestamp;temperature;humidity
21830;DHT22;11077;50.264;6.798;2023-03-03T00:01:07;-2.00;99.90
21830;DHT22;11077;50.264;6.798;2023-03-03T00:03:34;-2.00;99.90
21830;DHT22;11077;50.264;6.798;2023-03-03T00:06:03;-2.10;99.90
21830;DHT22;11077;50.264;6.798;2023-03-03T00:08:31;-2.10;99.90
21830;DHT22;11077;50.264;6.798;2023-03-03T00:10:58;-2.10;99.90
21830;DHT22;11077;50.264;6.798;2023-03-03T00:13:29;-2.20;99.90
21830;DHT22;11077;50.264;6.798;2023-03-03T00:16:12;-2.30;99.90
21830;DHT22;11077;50.264;6.798;2023-03-03T00:18:42;-2.30;99.90
21830;DHT22;11077;50.264;6.798;2023-03-03T00:21:22;-2.40;99.90
21830;DHT22;11077;50.264;6.798;2023-03-03T00:23:50;-2.40;99.90
21830;DHT22;11077;50.264;6.798;2023-03-03T00:26:20;-2.40;99.90
21830;DHT22;11077;50.264;6.798;2023-03-03T00:28:50;-2.30;99.90
21830;DHT22;11077;50.264;6.798;2023-03-03T00:31:21;-2.50;99.90
21830;DHT22;11077;50.264;6.798;2023-03-03T00:33:51;-2.40;99.90
21830;DHT22;11077;50.264;6.798;2023-03-03T00:36:29;-2.50;99.90
21830;DHT22;11077;50.264;6.798;2023-03-03T00:39:21;-2.50;99.90
21830;DHT22;11077;50.264;6.798;2023-03-03T00:41:49;-2.50;99.90
21830;DHT22;11077;50.264;6.798;2023-03-03T00:44:39;-2.60;99.90
21830;DHT22;11077;50.264;6.798;2023-03-03T00:47:24;-2.50;99.90
21830;DHT22;11077;50.264;6.798;2023-03-03T00:49:52;-2.50;99.90
21830;DHT22;11077;50.264;6.798;2023-03-03T00:52:19;-2.50;99.90
21830;DHT22;11077;50.264;6.798;2023-03-03T00:54:47;-2.60;99.90
21830;DHT22;11077;50.264;6.798;2023-03-03T00:57:14;-2.60;99.90
21830;DHT22;11077;50.264;6.798;2023-03-03T00:59:42;-2.60;99.90
21830;DHT22;11077;50.264;6.798;2023-03-03T01:02:09;-2.60;99.90
21830;DHT22;11077;50.264;6.798;2023-03-03T01:04:39;-2.60;99.90
21830;DHT22;11077;50.264;6.798;2023-03-03T01:07:07;-2.60;99.90
21830;DHT22;11077;50.264;6.798;2023-03-03T01:09:34;-2.60;99.90
21830;DHT22;11077;50.264;6.798;2023-03-03T01:12:02;-2.70;99.90
21830;DHT22;11077;50.264;6.798;2023-03-03T01:14:29;-2.70;99.90
21830;DHT22;11077;50.264;6.798;2023-03-03T01:16:56;-2.70;99.90
21830;DHT22;11077;50.264;6.798;2023-03-03T01:19:24;-2.70;99.90
21830;DHT22;11077;50.264;6.798;2023-03-03T01:21:52;-2.40;99.90
21830;DHT22;11077;50.264;6.798;2023-03-03T01:24:20;-2.60;99.90
21830;DHT22;11077;50.264;6.798;2023-03-03T01:26:47;-2.50;99.90
21830;DHT22;11077;50.264;6.798;2023-03-03T01:29:14;-2.60;99.90
21830;DHT22;11077;50.264;6.798;2023-03-03T01:31:41;-2.60;99.90
21830;DHT22;11077;50.264;6.798;2023-03-03T01:34:09;-2.50;99.90
21830;DHT22;11077;50.264;6.798;2023-03-03T01:36:36;-2.70;99.90
21830;DHT22;11077;50.264;6.798;2023-03-03T01:39:04;-2.70;99.90
21830;DHT22;11077;50.264;6.798;2023-03-03T01:41:32;-2.70;99.90
21830;DHT22;11077;50.264;6.798;2023-03-03T01:43:59;-2.70;99.90
21830;DHT22;11077;50.264;6.798;2023-03-03T01:46:46;-2.80;99.90
21830;DHT22;11077;50.264;6.798;2023-03-03T01:49:17;-2.80;99.90
21830;DHT22;11077;50.264;6.798;2023-03-03T01:51:50;-2.80;99.90
21830;DHT22;11077;50.264;6.798;2023-03-03T01:54:24;-2.80;99.90
21830;DHT22;11077;50.264;6.798;2023-03-03T01:56:55;-2.70;99.90
21830;DHT22;11077;50.264;6.798;2023-03-03T01:59:26;-2.80;99.90
21830;DHT22;11077;50.264;6.798;2023-03-03T02:01:55;-2.90;99.90
21830;DHT22;11077;50.264;6.798;2023-03-03T02:04:23;-2.90;99.90
21830;DHT22;11077;50.264;6.798;2023-03-03T02:06:53;-3.00;99.90
21830;DHT22;11077;50.264;6.798;2023-03-03T02:09:31;-2.90;99.90
21830;DHT22;11077;50.264;6.798;2023-03-03T02:12:04;-3.00;99.90
21830;DHT22;11077;50.264;6.798;2023-03-03T02:14:33;-2.90;99.90
21830;DHT22;11077;50.264;6.798;2023-03-03T02:17:01;-3.00;99.90
21830;DHT22;11077;50.264;6.798;2023-03-03T02:19:34;-3.00;99.90
21830;DHT22;11077;50.264;6.798;2023-03-03T02:22:02;-3.00;99.90
21830;DHT22;11077;50.264;6.798;2023-03-03T02:24:35;-3.00;99.90
21830;DHT22;11077;50.264;6.798;2023-03-03T02:27:05;-3.00;99.90
21830;DHT22;11077;50.264;6.798;2023-03-03T02:29:32;-3.00;99.90
21830;DHT22;11077;50.264;6.798;2023-03-03T02:32:00;-3.00;99.90
21830;DHT22;11077;50.264;6.798;2023-03-03T02:34:27;-3.00;99.90
21830;DHT22;11077;50.264;6.798;2023-03-03T02:36:54;-3.00;99.90
21830;DHT22;11077;50.264;6.798;2023-03-03T02:39:24;-3.00;99.90
21830;DHT22;11077;50.264;6.798;2023-03-03T02:41:54;-3.00;99.90
21830;DHT22;11077;50.264;6.798;2023-03-03T02:44:33;-3.00;99.90
21830;DHT22;11077;50.264;6.798;2023-03-03T02:47:01;-3.10;99.90
21830;DHT22;11077;50.264;6.798;2023-03-03T02:49:30;-3.10;99.90
21830;DHT22;11077;50.264;6.798;2023-03-03T02:51:58;-3.10;99.90
21830;DHT22;11077;50.264;6.798;2023-03-03T02:54:28;-3.20;99.90
21830;DHT22;11077;50.264;6.798;2023-03-03T02:56:56;-3.20;99.90
21830;DHT22;11077;50.264;6.798;2023-03-03T02:59:23;-3.20;99.90
21830;DHT22;11077;50.264;6.798;2023-03-03T03:01:53;-3.30;99.90
21830;DHT22;11077;50.264;6.798;2023-03-03T03:04:22;-3.30;99.90
21830;DHT22;11077;50.264;6.798;2023-03-03T03:06:50;-3.40;99.90
21830;DHT22;11077;50.264;6.798;2023-03-03T03:09:19;-3.40;99.90
21830;DHT22;11077;50.264;6.798;2023-03-03T03:11:49;-3.50;99.90
21830;DHT22;11077;50.264;6.798;2023-03-03T03:14:20;-3.40;99.90
21830;DHT22;11077;50.264;6.798;2023-03-03T03:16:48;-3.50;99.90
21830;DHT22;11077;50.264;6.798;2023-03-03T03:19:17;-3.50;99.90
21830;DHT22;11077;50.264;6.798;2023-03-03T03:21:44;-3.50;99.90
21830;DHT22;11077;50.264;6.798;2023-03-03T03:24:11;-3.50;99.90
21830;DHT22;11077;50.264;6.798;2023-03-03T03:26:43;-3.50;99.90
21830;DHT22;11077;50.264;6.798;2023-03-03T03:29:10;-3.60;99.90
21830;DHT22;11077;50.264;6.798;2023-03-03T03:31:38;-3.60;99.90
21830;DHT22;11077;50.264;6.798;2023-03-03T03:34:05;-3.70;99.90
21830;DHT22;11077;50.264;6.798;2023-03-03T03:36:34;-3.70;99.90
21830;DHT22;11077;50.264;6.798;2023-03-03T03:39:04;-3.60;99.90
21830;DHT22;11077;50.264;6.798;2023-03-03T03:41:35;-3.70;99.90
21830;DHT22;11077;50.264;6.798;2023-03-03T03:44:02;-3.70;99.90
21830;DHT22;11077;50.264;6.798;2023-03-03T03:46:29;-3.70;99.90
21830;DHT22;11077;50.264;6.798;2023-03-03T03:48:57;-3.70;99.90
21830;DHT22;11077;50.264;6.798;2023-03-03T03:51:25;-3.70;99.90
21830;DHT22;11077;50.264;6.798;2023-03-03T03:53:54;-3.80;99.90
21830;DHT22;11077;50.264;6.798;2023-03-03T03:56:21;-3.70;99.90
21830;DHT22;11077;50.264;6.798;2023-03-03T03:58:52;-3.70;99.90
21830;DHT22;11077;50.264;6.798;2023-03-03T04:01:19;-3.60;99.90
21830;DHT22;11077;50.264;6.798;2023-03-03T04:03:48;-3.60;99.90
21830;DHT22;11077;50.264;6.798;2023-03-03T04:06:18;-3.60;99.90
21830;DHT22;11077;50.264;6.798;2023-03-03T04:08:46;-3.60;99.90
21830;DHT22;11077;50.264;6.798;2023-03-03T04:11:16;-3.50;99.90
21830;DHT22;11077;50.264;6.798;2023-03-03T04:13:43;-3.70;99.90
21830;DHT22;11077;50.264;6.798;2023-03-03T04:16:11;-3.60;99.90
21830;DHT22;11077;50.264;6.798;2023-03-03T04:18:41;-3.60;99.90
21830;DHT22;11077;50.264;6.798;2023-03-03T04:21:11;-3.50;99.90
21830;DHT22;11077;50.264;6.798;2023-03-03T04:23:40;-3.50;99.90
21830;DHT22;11077;50.264;6.798;2023-03-03T04:26:07;-3.40;99.90
21830;DHT22;11077;50.264;6.798;2023-03-03T04:28:36;-3.40;99.90
21830;DHT22;11077;50.264;6.798;2023-03-03T04:31:04;-3.10;99.90
21830;DHT22;11077;50.264;6.798;2023-03-03T04:33:32;-3.30;99.90
21830;DHT22;11077;50.264;6.798;2023-03-03T04:36:01;-3.10;99.90
21830;DHT22;11077;50.264;6.798;2023-03-03T04:38:30;-3.10;99.90
21830;DHT22;11077;50.264;6.798;2023-03-03T04:40:58;-3.00;99.90
21830;DHT22;11077;50.264;6.798;2023-03-03T04:43:28;-3.00;99.90
21830;DHT22;11077;50.264;6.798;2023-03-03T04:45:57;-2.90;99.90
21830;DHT22;11077;50.264;6.798;2023-03-03T04:48:25;-2.90;99.90
21830;DHT22;11077;50.264;6.798;2023-03-03T04:50:52;-3.00;99.90
21830;DHT22;11077;50.264;6.798;2023-03-03T04:53:20;-2.90;99.90
21830;DHT22;11077;50.264;6.798;2023-03-03T04:55:49;-2.80;99.90
21830;DHT22;11077;50.264;6.798;2023-03-03T04:58:16;-2.80;99.90
21830;DHT22;11077;50.264;6.798;2023-03-03T05:00:44;-2.70;99.90
21830;DHT22;11077;50.264;6.798;2023-03-03T05:03:13;-2.60;99.90
21830;DHT22;11077;50.264;6.798;2023-03-03T05:05:41;-2.40;99.90
21830;DHT22;11077;50.264;6.798;2023-03-03T05:08:08;-2.50;99.90
21830;DHT22;11077;50.264;6.798;2023-03-03T05:10:36;-2.40;99.90
21830;DHT22;11077;50.264;6.798;2023-03-03T05:13:03;-2.50;99.90
21830;DHT22;11077;50.264;6.798;2023-03-03T05:15:30;-2.40;99.90
21830;DHT22;11077;50.264;6.798;2023-03-03T05:17:58;-2.30;99.90
21830;DHT22;11077;50.264;6.798;2023-03-03T05:20:26;-2.30;99.90
21830;DHT22;11077;50.264;6.798;2023-03-03T05:22:54;-2.20;99.90
21830;DHT22;11077;50.264;6.798;2023-03-03T05:25:24;-2.20;99.90
21830;DHT22;11077;50.264;6.798;2023-03-03T05:27:51;-2.20;99.90
21830;DHT22;11077;50.264;6.798;2023-03-03T05:30:19;-2.10;99.90
21830;DHT22;11077;50.264;6.798;2023-03-03T05:32:47;-2.10;99.90
21830;DHT22;11077;50.264;6.798;2023-03-03T05:35:14;-2.10;99.90
21830;DHT22;11077;50.264;6.798;2023-03-03T05:37:43;-2.10;99.90
21830;DHT22;11077;50.264;6.798;2023-03-03T05:40:13;-2.10;99.90
21830;DHT22;11077;50.264;6.798;2023-03-03T05:42:40;-2.10;99.90
21830;DHT22;11077;50.264;6.798;2023-03-03T05:45:08;-2.10;99.90
21830;DHT22;11077;50.264;6.798;2023-03-03T05:47:35;-2.00;99.90
21830;DHT22;11077;50.264;6.798;2023-03-03T05:50:03;-2.00;99.90
21830;DHT22;11077;50.264;6.798;2023-03-03T05:52:30;-2.00;99.90
21830;DHT22;11077;50.264;6.798;2023-03-03T05:54:59;-2.00;99.90
21830;DHT22;11077;50.264;6.798;2023-03-03T05:57:26;-2.00;99.90
21830;DHT22;11077;50.264;6.798;2023-03-03T05:59:53;-2.00;99.90
21830;DHT22;11077;50.264;6.798;2023-03-03T06:02:20;-1.90;99.90
21830;DHT22;11077;50.264;6.798;2023-03-03T06:04:47;-1.90;99.90
21830;DHT22;11077;50.264;6.798;2023-03-03T06:07:14;-1.90;99.90
21830;DHT22;11077;50.264;6.798;2023-03-03T06:09:42;-1.90;99.90
21830;DHT22;11077;50.264;6.798;2023-03-03T06:12:10;-1.90;99.90
21830;DHT22;11077;50.264;6.798;2023-03-03T06:14:37;-1.80;99.90
21830;DHT22;11077;50.264;6.798;2023-03-03T06:17:06;-1.80;99.90
21830;DHT22;11077;50.264;6.798;2023-03-03T06:19:33;-1.80;99.90
21830;DHT22;11077;50.264;6.798;2023-03-03T06:22:00;-1.80;99.90
21830;DHT22;11077;50.264;6.798;2023-03-03T06:24:28;-1.80;99.90
21830;DHT22;11077;50.264;6.798;2023-03-03T06:26:56;-1.80;99.90
21830;DHT22;11077;50.264;6.798;2023-03-03T06:29:25;-1.80;99.90
21830;DHT22;11077;50.264;6.798;2023-03-03T06:31:54;-1.80;99.90
21830;DHT22;11077;50.264;6.798;2023-03-03T06:34:21;-1.80;99.90
21830;DHT22;11077;50.264;6.798;2023-03-03T06:36:48;-1.80;99.90
21830;DHT22;11077;50.264;6.798;2023-03-03T06:39:17;-1.80;99.90
21830;DHT22;11077;50.264;6.798;2023-03-03T06:41:44;-1.80;99.90
21830;DHT22;11077;50.264;6.798;2023-03-03T06:44:11;-1.70;99.90
21830;DHT22;11077;50.264;6.798;2023-03-03T06:46:40;-1.80;99.90
21830;DHT22;11077;50.264;6.798;2023-03-03T06:49:07;-1.70;99.90
21830;DHT22;11077;50.264;6.798;2023-03-03T06:51:36;-1.70;99.90
21830;DHT22;11077;50.264;6.798;2023-03-03T06:54:10;-1.70;99.90
21830;DHT22;11077;50.264;6.798;2023-03-03T06:56:37;-1.50;99.90
21830;DHT22;11077;50.264;6.798;2023-03-03T06:59:10;-1.70;99.90
21830;DHT22;11077;50.264;6.798;2023-03-03T07:01:40;-1.60;99.90
21830;DHT22;11077;50.264;6.798;2023-03-03T07:04:16;-1.60;99.90
21830;DHT22;11077;50.264;6.798;2023-03-03T07:06:47;-1.60;99.90
21830;DHT22;11077;50.264;6.798;2023-03-03T07:09:19;-1.60;99.90
21830;DHT22;11077;50.264;6.798;2023-03-03T07:11:46;-1.60;99.90
21830;DHT22;11077;50.264;6.798;2023-03-03T07:14:16;-1.60;99.90
21830;DHT22;11077;50.264;6.798;2023-03-03T07:16:45;-1.60;99.90
21830;DHT22;11077;50.264;6.798;2023-03-03T07:19:18;-1.70;99.90
21830;DHT22;11077;50.264;6.798;2023-03-03T07:21:46;-1.70;99.90
21830;DHT22;11077;50.264;6.798;2023-03-03T07:24:24;-1.70;99.90
21830;DHT22;11077;50.264;6.798;2023-03-03T07:26:54;-1.70;99.90
21830;DHT22;11077;50.264;6.798;2023-03-03T07:29:25;-1.70;99.90
21830;DHT22;11077;50.264;6.798;2023-03-03T07:31:55;-1.80;99.90
21830;DHT22;11077;50.264;6.798;2023-03-03T07:34:26;-1.70;99.90
21830;DHT22;11077;50.264;6.798;2023-03-03T07:36:58;-1.70;99.90
21830;DHT22;11077;50.264;6.798;2023-03-03T07:39:33;-1.70;99.90
21830;DHT22;11077;50.264;6.798;2023-03-03T07:42:21;-1.70;99.90
21830;DHT22;11077;50.264;6.798;2023-03-03T07:45:31;-1.70;99.90
21830;DHT22;11077;50.264;6.798;2023-03-03T07:48:13;-1.70;99.90
21830;DHT22;11077;50.264;6.798;2023-03-03T07:50:43;-1.70;99.90
21830;DHT22;11077;50.264;6.798;2023-03-03T07:53:19;-1.70;99.90
21830;DHT22;11077;50.264;6.798;2023-03-03T07:55:48;-1.70;99.90
21830;DHT22;11077;50.264;6.798;2023-03-03T07:58:21;-1.70;99.90
21830;DHT22;11077;50.264;6.798;2023-03-03T08:03:50;-1.70;99.90
21830;DHT22;11077;50.264;6.798;2023-03-03T08:06:39;-1.60;99.90
21830;DHT22;11077;50.264;6.798;2023-03-03T08:09:42;-1.60;99.90
21830;DHT22;11077;50.264;6.798;2023-03-03T08:12:32;-1.60;99.90
21830;DHT22;11077;50.264;6.798;2023-03-03T08:15:18;-1.50;99.90
21830;DHT22;11077;50.264;6.798;2023-03-03T08:17:46;-1.50;99.90
21830;DHT22;11077;50.264;6.798;2023-03-03T08:20:49;-1.40;99.90
21830;DHT22;11077;50.264;6.798;2023-03-03T08:23:18;-1.40;99.90
21830;DHT22;11077;50.264;6.798;2023-03-03T08:25:47;-1.40;99.90
21830;DHT22;11077;50.264;6.798;2023-03-03T08:28:16;-1.40;99.90
21830;DHT22;11077;50.264;6.798;2023-03-03T08:30:44;-1.30;99.90
21830;DHT22;11077;50.264;6.798;2023-03-03T08:33:12;-1.40;99.90
21830;DHT22;11077;50.264;6.798;2023-03-03T08:35:40;-1.40;99.90
21830;DHT22;11077;50.264;6.798;2023-03-03T08:38:10;-1.40;99.90
21830;DHT22;11077;50.264;6.798;2023-03-03T08:40:37;-1.40;99.90
21830;DHT22;11077;50.264;6.798;2023-03-03T08:43:05;-1.40;99.90
21830;DHT22;11077;50.264;6.798;2023-03-03T08:45:33;-1.30;99.90
21830;DHT22;11077;50.264;6.798;2023-03-03T08:48:00;-1.30;99.90
21830;DHT22;11077;50.264;6.798;2023-03-03T08:50:28;-1.20;99.90
21830;DHT22;11077;50.264;6.798;2023-03-03T08:52:55;-1.20;99.90
21830;DHT22;11077;50.264;6.798;2023-03-03T08:55:24;-1.10;99.90
21830;DHT22;11077;50.264;6.798;2023-03-03T08:57:51;-1.10;99.90
21830;DHT22;11077;50.264;6.798;2023-03-03T09:00:19;-1.10;99.90
21830;DHT22;11077;50.264;6.798;2023-03-03T09:02:47;-1.00;99.90
21830;DHT22;11077;50.264;6.798;2023-03-03T09:05:15;-0.90;99.90
21830;DHT22;11077;50.264;6.798;2023-03-03T09:07:43;-0.90;99.90
21830;DHT22;11077;50.264;6.798;2023-03-03T09:10:13;-0.80;99.90
21830;DHT22;11077;50.264;6.798;2023-03-03T09:12:43;-0.90;99.90
21830;DHT22;11077;50.264;6.798;2023-03-03T09:15:20;-0.80;99.90
21830;DHT22;11077;50.264;6.798;2023-03-03T09:17:49;-0.80;99.90
21830;DHT22;11077;50.264;6.798;2023-03-03T09:20:34;-0.70;99.90
21830;DHT22;11077;50.264;6.798;2023-03-03T09:23:24;-0.70;99.90
21830;DHT22;11077;50.264;6.798;2023-03-03T09:25:54;-0.50;99.90
21830;DHT22;11077;50.264;6.798;2023-03-03T09:28:25;-0.40;99.90
21830;DHT22;11077;50.264;6.798;2023-03-03T09:30:56;-0.30;99.90
21830;DHT22;11077;50.264;6.798;2023-03-03T09:33:26;-0.30;99.90
21830;DHT22;11077;50.264;6.798;2023-03-03T09:36:00;-0.20;99.90
21830;DHT22;11077;50.264;6.798;2023-03-03T09:38:30;-0.20;99.90
21830;DHT22;11077;50.264;6.798;2023-03-03T09:41:22;-0.20;99.90
21830;DHT22;11077;50.264;6.798;2023-03-03T09:46:56;-0.10;99.90
21830;DHT22;11077;50.264;6.798;2023-03-03T09:49:30;0.00;99.90
21830;DHT22;11077;50.264;6.798;2023-03-03T09:52:06;0.00;99.90
21830;DHT22;11077;50.264;6.798;2023-03-03T09:54:55;0.10;99.90
21830;DHT22;11077;50.264;6.798;2023-03-03T09:57:35;0.20;99.90
21830;DHT22;11077;50.264;6.798;2023-03-03T10:00:21;0.30;99.90
21830;DHT22;11077;50.264;6.798;2023-03-03T10:03:10;0.40;99.90
21830;DHT22;11077;50.264;6.798;2023-03-03T10:05:46;0.40;99.90
21830;DHT22;11077;50.264;6.798;2023-03-03T10:08:37;0.30;99.90
21830;DHT22;11077;50.264;6.798;2023-03-03T10:11:15;0.20;99.90
21830;DHT22;11077;50.264;6.798;2023-03-03T10:16:53;0.20;99.90
21830;DHT22;11077;50.264;6.798;2023-03-03T10:19:35;0.40;99.90
21830;DHT22;11077;50.264;6.798;2023-03-03T10:22:16;0.50;99.90
21830;DHT22;11077;50.264;6.798;2023-03-03T10:25:00;0.60;99.90
21830;DHT22;11077;50.264;6.798;2023-03-03T10:30:27;0.80;99.90
21830;DHT22;11077;50.264;6.798;2023-03-03T10:33:03;0.70;99.90
21830;DHT22;11077;50.264;6.798;2023-03-03T10:36:01;0.90;99.90
21830;DHT22;11077;50.264;6.798;2023-03-03T10:38:45;1.00;99.90
21830;DHT22;11077;50.264;6.798;2023-03-03T10:41:26;1.30;99.90
21830;DHT22;11077;50.264;6.798;2023-03-03T10:44:15;1.60;99.90
21830;DHT22;11077;50.264;6.798;2023-03-03T10:46:53;1.90;99.90
21830;DHT22;11077;50.264;6.798;2023-03-03T10:49:47;2.00;99.90
21830;DHT22;11077;50.264;6.798;2023-03-03T10:52:29;2.10;99.90
21830;DHT22;11077;50.264;6.798;2023-03-03T10:55:26;2.10;99.90
21830;DHT22;11077;50.264;6.798;2023-03-03T10:58:11;2.10;99.90
21830;DHT22;11077;50.264;6.798;2023-03-03T11:00:43;2.20;99.90
21830;DHT22;11077;50.264;6.798;2023-03-03T11:03:32;2.50;99.90
21830;DHT22;11077;50.264;6.798;2023-03-03T11:06:10;3.00;99.90
21830;DHT22;11077;50.264;6.798;2023-03-03T11:08:44;3.50;99.90
21830;DHT22;11077;50.264;6.798;2023-03-03T11:11:19;3.80;99.90
21830;DHT22;11077;50.264;6.798;2023-03-03T11:13:54;4.00;99.90
21830;DHT22;11077;50.264;6.798;2023-03-03T11:16:36;4.00;99.90
21830;DHT22;11077;50.264;6.798;2023-03-03T11:19:12;4.10;99.90
21830;DHT22;11077;50.264;6.798;2023-03-03T11:21:49;4.10;99.90
21830;DHT22;11077;50.264;6.798;2023-03-03T11:24:33;4.10;99.90
21830;DHT22;11077;50.264;6.798;2023-03-03T11:27:20;4.00;99.90
21830;DHT22;11077;50.264;6.798;2023-03-03T11:30:02;4.30;99.90
21830;DHT22;11077;50.264;6.798;2023-03-03T11:32:40;4.40;99.90
21830;DHT22;11077;50.264;6.798;2023-03-03T11:35:19;4.60;99.90
21830;DHT22;11077;50.264;6.798;2023-03-03T11:37:56;4.80;99.90
21830;DHT22;11077;50.264;6.798;2023-03-03T11:40:29;4.90;99.90
21830;DHT22;11077;50.264;6.798;2023-03-03T11:43:03;4.70;99.90
21830;DHT22;11077;50.264;6.798;2023-03-03T11:45:38;4.80;99.90
21830;DHT22;11077;50.264;6.798;2023-03-03T11:48:13;4.50;99.90
21830;DHT22;11077;50.264;6.798;2023-03-03T11:50:47;4.20;99.90
21830;DHT22;11077;50.264;6.798;2023-03-03T11:56:33;3.70;99.90
21830;DHT22;11077;50.264;6.798;2023-03-03T12:02:02;3.50;99.90
21830;DHT22;11077;50.264;6.798;2023-03-03T12:04:38;3.60;99.90
21830;DHT22;11077;50.264;6.798;2023-03-03T12:07:18;3.60;99.90
21830;DHT22;11077;50.264;6.798;2023-03-03T12:09:52;3.70;99.90
21830;DHT22;11077;50.264;6.798;2023-03-03T12:12:27;3.70;99.90
21830;DHT22;11077;50.264;6.798;2023-03-03T12:15:05;3.80;99.90
21830;DHT22;11077;50.264;6.798;2023-03-03T12:17:53;4.10;99.90
21830;DHT22;11077;50.264;6.798;2023-03-03T12:20:27;3.90;99.90
21830;DHT22;11077;50.264;6.798;2023-03-03T12:23:11;3.70;99.90
21830;DHT22;11077;50.264;6.798;2023-03-03T12:25:43;3.50;99.90
21830;DHT22;11077;50.264;6.798;2023-03-03T12:28:16;3.70;99.90
21830;DHT22;11077;50.264;6.798;2023-03-03T12:31:04;3.70;99.90
21830;DHT22;11077;50.264;6.798;2023-03-03T12:36:41;3.90;99.90
21830;DHT22;11077;50.264;6.798;2023-03-03T12:39:19;4.00;99.90
21830;DHT22;11077;50.264;6.798;2023-03-03T12:41:51;4.00;99.90
21830;DHT22;11077;50.264;6.798;2023-03-03T12:44:29;4.20;99.90
21830;DHT22;11077;50.264;6.798;2023-03-03T12:47:05;4.10;99.90
21830;DHT22;11077;50.264;6.798;2023-03-03T12:49:42;4.20;99.90
21830;DHT22;11077;50.264;6.798;2023-03-03T12:52:22;4.50;99.90
21830;DHT22;11077;50.264;6.798;2023-03-03T12:55:01;4.70;99.90
21830;DHT22;11077;50.264;6.798;2023-03-03T12:57:34;4.80;99.90
21830;DHT22;11077;50.264;6.798;2023-03-03T13:00:29;4.60;99.90
21830;DHT22;11077;50.264;6.798;2023-03-03T13:03:04;4.60;99.90
21830;DHT22;11077;50.264;6.798;2023-03-03T13:05:43;4.40;99.90
21830;DHT22;11077;50.264;6.798;2023-03-03T13:08:33;4.30;99.90
21830;DHT22;11077;50.264;6.798;2023-03-03T13:11:19;4.10;99.90
21830;DHT22;11077;50.264;6.798;2023-03-03T13:13:52;4.10;99.90
21830;DHT22;11077;50.264;6.798;2023-03-03T13:16:29;4.10;99.90
21830;DHT22;11077;50.264;6.798;2023-03-03T13:19:02;3.80;99.90
21830;DHT22;11077;50.264;6.798;2023-03-03T13:21:35;4.00;99.90
21830;DHT22;11077;50.264;6.798;2023-03-03T13:24:15;4.00;99.90
21830;DHT22;11077;50.264;6.798;2023-03-03T13:26:49;4.00;99.90
21830;DHT22;11077;50.264;6.798;2023-03-03T13:29:22;3.90;99.90
21830;DHT22;11077;50.264;6.798;2023-03-03T13:31:54;3.70;99.90
21830;DHT22;11077;50.264;6.798;2023-03-03T13:34:31;3.60;99.90
21830;DHT22;11077;50.264;6.798;2023-03-03T13:37:05;3.60;99.90
21830;DHT22;11077;50.264;6.798;2023-03-03T13:39:38;3.40;99.90
21830;DHT22;11077;50.264;6.798;2023-03-03T13:42:14;3.40;99.90
21830;DHT22;11077;50.264;6.798;2023-03-03T13:44:48;3.30;99.90
21830;DHT22;11077;50.264;6.798;2023-03-03T13:47:23;3.20;99.90
21830;DHT22;11077;50.264;6.798;2023-03-03T13:50:07;3.10;99.90
21830;DHT22;11077;50.264;6.798;2023-03-03T13:52:41;3.10;99.90
21830;DHT22;11077;50.264;6.798;2023-03-03T13:55:20;3.10;99.90
21830;DHT22;11077;50.264;6.798;2023-03-03T13:58:00;3.10;99.90
21830;DHT22;11077;50.264;6.798;2023-03-03T14:00:39;3.20;99.90
21830;DHT22;11077;50.264;6.798;2023-03-03T14:03:28;3.20;99.90
21830;DHT22;11077;50.264;6.798;2023-03-03T14:06:02;3.20;99.90
21830;DHT22;11077;50.264;6.798;2023-03-03T14:08:43;3.10;99.90
21830;DHT22;11077;50.264;6.798;2023-03-03T14:11:20;3.10;99.90
21830;DHT22;11077;50.264;6.798;2023-03-03T14:13:56;3.00;99.90
21830;DHT22;11077;50.264;6.798;2023-03-03T14:16:46;3.00;99.90
21830;DHT22;11077;50.264;6.798;2023-03-03T14:19:22;2.90;99.90
21830;DHT22;11077;50.264;6.798;2023-03-03T14:22:11;2.80;99.90
21830;DHT22;11077;50.264;6.798;2023-03-03T14:24:59;2.70;99.90
21830;DHT22;11077;50.264;6.798;2023-03-03T14:27:32;2.70;99.90
21830;DHT22;11077;50.264;6.798;2023-03-03T14:30:29;2.80;99.90
21830;DHT22;11077;50.264;6.798;2023-03-03T14:33:19;2.80;99.90
21830;DHT22;11077;50.264;6.798;2023-03-03T14:36:00;2.90;99.90
21830;DHT22;11077;50.264;6.798;2023-03-03T14:38:42;2.80;99.90
21830;DHT22;11077;50.264;6.798;2023-03-03T14:41:16;2.70;99.90
21830;DHT22;11077;50.264;6.798;2023-03-03T14:43:46;2.70;99.90
21830;DHT22;11077;50.264;6.798;2023-03-03T14:46:43;2.70;99.90
21830;DHT22;11077;50.264;6.798;2023-03-03T14:49:15;2.70;99.90
21830;DHT22;11077;50.264;6.798;2023-03-03T14:51:45;2.70;99.90
21830;DHT22;11077;50.264;6.798;2023-03-03T14:54:21;2.70;99.90
21830;DHT22;11077;50.264;6.798;2023-03-03T14:57:02;2.70;99.90
21830;DHT22;11077;50.264;6.798;2023-03-03T14:59:32;2.60;99.90
21830;DHT22;11077;50.264;6.798;2023-03-03T15:05:16;2.50;99.90
21830;DHT22;11077;50.264;6.798;2023-03-03T15:07:47;2.40;99.90
21830;DHT22;11077;50.264;6.798;2023-03-03T15:10:30;2.30;99.90
21830;DHT22;11077;50.264;6.798;2023-03-03T15:12:58;2.30;99.90
21830;DHT22;11077;50.264;6.798;2023-03-03T15:15:34;2.30;99.90
21830;DHT22;11077;50.264;6.798;2023-03-03T15:18:01;2.40;99.90
21830;DHT22;11077;50.264;6.798;2023-03-03T15:20:39;2.40;99.90
21830;DHT22;11077;50.264;6.798;2023-03-03T15:23:47;2.40;99.90
21830;DHT22;11077;50.264;6.798;2023-03-03T15:26:19;2.40;99.90
21830;DHT22;11077;50.264;6.798;2023-03-03T15:28:54;2.40;99.90
21830;DHT22;11077;50.264;6.798;2023-03-03T15:31:34;2.40;99.90
21830;DHT22;11077;50.264;6.798;2023-03-03T15:34:24;2.40;99.90
21830;DHT22;11077;50.264;6.798;2023-03-03T15:36:58;2.30;99.90
21830;DHT22;11077;50.264;6.798;2023-03-03T15:39:34;2.30;99.90
21830;DHT22;11077;50.264;6.798;2023-03-03T15:42:04;2.30;99.90
21830;DHT22;11077;50.264;6.798;2023-03-03T15:44:41;2.20;99.90
21830;DHT22;11077;50.264;6.798;2023-03-03T15:47:27;2.20;99.90
21830;DHT22;11077;50.264;6.798;2023-03-03T15:50:18;2.10;99.90
21830;DHT22;11077;50.264;6.798;2023-03-03T15:52:54;1.90;99.90
21830;DHT22;11077;50.264;6.798;2023-03-03T15:55:41;1.80;99.90
21830;DHT22;11077;50.264;6.798;2023-03-03T15:58:39;1.70;99.90
21830;DHT22;11077;50.264;6.798;2023-03-03T16:01:14;1.60;99.90
21830;DHT22;11077;50.264;6.798;2023-03-03T16:03:48;1.50;99.90
21830;DHT22;11077;50.264;6.798;2023-03-03T16:06:21;1.60;99.90
21830;DHT22;11077;50.264;6.798;2023-03-03T16:08:57;1.60;99.90
21830;DHT22;11077;50.264;6.798;2023-03-03T16:11:36;1.50;99.90
21830;DHT22;11077;50.264;6.798;2023-03-03T16:14:20;1.30;99.90
21830;DHT22;11077;50.264;6.798;2023-03-03T16:16:54;1.30;99.90
21830;DHT22;11077;50.264;6.798;2023-03-03T16:19:35;1.30;99.90
21830;DHT22;11077;50.264;6.798;2023-03-03T16:22:15;1.20;99.90
21830;DHT22;11077;50.264;6.798;2023-03-03T16:24:57;1.10;99.90
21830;DHT22;11077;50.264;6.798;2023-03-03T16:27:30;1.00;99.90
21830;DHT22;11077;50.264;6.798;2023-03-03T16:30:10;0.90;99.90
21830;DHT22;11077;50.264;6.798;2023-03-03T16:32:44;0.70;99.90
21830;DHT22;11077;50.264;6.798;2023-03-03T16:35:20;0.60;99.90
21830;DHT22;11077;50.264;6.798;2023-03-03T16:37:57;0.60;99.90
21830;DHT22;11077;50.264;6.798;2023-03-03T16:40:28;0.50;99.90
21830;DHT22;11077;50.264;6.798;2023-03-03T16:43:06;0.50;99.90